Time;durP1;ratioP1;P1;durP2;ratioP2;P2;SDS_P1;SDS_P2;PMS_P1;PMS_P2;Temp;Humidity;BMP_temperature;BMP_pressure;BME280_temperature;BME280_humidity;BME280_pressure;Samples;Min_cycle;Max_cycle;Signal;HPM_P1;HPM_P2
2021/09/14 00:01:12;;;;;;;10.18;5.57;;;;;;;16.34;91.22;98001.81;4990084;28;20062;-60
2021/09/14 00:03:40;;;;;;;9.30;6.00;;;;;;;15.95;91.36;98003.44;4991482;28;20030;-59
2021/09/14 00:06:06;;;;;;;10.65;5.95;;;;;;;16.11;91.19;98000.66;4990390;28;20053;-59
2021/09/14 00:08:31;;;;;;;10.38;6.00;;;;;;;16.04;91.63;97995.88;4990842;28;20034;-60
2021/09/14 00:10:56;;;;;;;10.43;6.28;;;;;;;15.84;92.71;98010.28;4989954;28;20046;-60
2021/09/14 00:13:22;;;;;;;10.38;6.68;;;;;;;15.78;93.12;98006.25;4988660;28;20038;-59
2021/09/14 00:15:49;;;;;;;9.93;6.10;;;;;;;15.99;91.46;98004.91;4990538;28;20042;-60
2021/09/14 00:18:14;;;;;;;12.82;6.50;;;;;;;15.70;92.62;98008.50;4989199;28;20065;-60
2021/09/14 00:20:40;;;;;;;8.65;5.53;;;;;;;15.95;91.80;98008.69;4990290;28;20033;-60
2021/09/14 00:23:05;;;;;;;9.27;6.13;;;;;;;15.77;92.39;98002.78;4989310;28;20030;-60
2021/09/14 00:25:32;;;;;;;10.57;5.50;;;;;;;15.90;92.87;98002.88;4991927;28;20436;-60
2021/09/14 00:27:58;;;;;;;7.70;5.15;;;;;;;16.52;89.46;98001.56;4989922;28;20029;-60
2021/09/14 00:30:23;;;;;;;7.53;5.10;;;;;;;16.66;89.04;97998.88;4990101;28;20038;-61
2021/09/14 00:32:49;;;;;;;9.90;6.78;;;;;;;15.88;90.85;98003.88;4989549;28;20029;-60
2021/09/14 00:35:14;;;;;;;9.45;6.53;;;;;;;15.74;92.01;98004.75;4990789;28;20044;-60
2021/09/14 00:37:39;;;;;;;12.18;6.18;;;;;;;15.70;92.37;97997.97;4989466;28;20026;-60
2021/09/14 00:40:06;;;;;;;13.50;7.13;;;;;;;15.86;92.62;98004.00;4988848;28;20030;-60
2021/09/14 00:42:32;;;;;;;9.85;6.40;;;;;;;15.75;92.29;98006.44;4988643;28;20026;-61
2021/09/14 00:44:57;;;;;;;9.88;6.57;;;;;;;15.69;91.90;97996.28;4988863;28;20033;-60
2021/09/14 00:47:23;;;;;;;9.18;6.13;;;;;;;15.83;91.74;97990.19;5007048;28;20084;-60
2021/09/14 00:49:49;;;;;;;10.63;5.90;;;;;;;15.86;91.65;97997.88;4988060;28;20025;-60
2021/09/14 00:52:14;;;;;;;10.43;6.47;;;;;;;15.79;90.91;97989.53;4988922;28;20053;-60
2021/09/14 00:54:44;;;;;;;13.48;5.80;;;;;;;15.74;92.90;97995.06;4990462;28;20077;-60
2021/09/14 00:57:10;;;;;;;9.18;6.07;;;;;;;15.93;89.42;97991.28;4991062;28;20077;-61
2021/09/14 00:59:38;;;;;;;10.38;6.00;;;;;;;15.98;89.94;97995.31;4990470;28;20155;-60
2021/09/14 01:02:03;;;;;;;10.13;6.07;;;;;;;15.61;91.35;97984.44;4988006;28;20047;-61
2021/09/14 01:04:35;;;;;;;10.50;6.35;;;;;;;15.50;92.71;97994.78;4988525;28;20052;-60
2021/09/14 01:07:02;;;;;;;9.10;6.40;;;;;;;15.43;93.04;97991.66;4988690;28;20523;-60
2021/09/14 01:09:30;;;;;;;10.13;5.78;;;;;;;15.92;90.23;97987.81;4989714;28;20657;-60
2021/09/14 01:11:59;;;;;;;11.23;6.15;;;;;;;15.82;90.94;97989.34;4988036;28;20096;-60
2021/09/14 01:14:24;;;;;;;9.38;6.28;;;;;;;15.75;90.42;97985.41;4988289;28;20567;-61
2021/09/14 01:16:50;;;;;;;7.68;5.38;;;;;;;15.98;90.16;97984.81;4987144;28;20499;-60
2021/09/14 01:19:15;;;;;;;11.57;6.65;;;;;;;15.52;91.55;97989.44;4989121;28;20081;-59
2021/09/14 01:21:40;;;;;;;12.88;6.47;;;;;;;15.42;93.43;97979.47;4988162;28;20066;-60
2021/09/14 01:24:07;;;;;;;9.13;6.50;;;;;;;15.18;93.95;97980.94;4990283;28;20029;-60
2021/09/14 01:26:33;;;;;;;10.20;6.28;;;;;;;15.67;91.60;97979.75;4989725;28;20408;-60
2021/09/14 01:29:11;;;;;;;9.38;6.13;;;;;;;15.50;92.07;97984.25;4988948;28;20061;-60
2021/09/14 01:31:37;;;;;;;7.82;5.50;;;;;;;15.80;90.49;97985.97;4990299;28;20590;-61
2021/09/14 01:34:03;;;;;;;9.32;5.88;;;;;;;15.74;90.47;97986.34;4987233;28;20080;-60
2021/09/14 01:36:29;;;;;;;11.77;6.05;;;;;;;15.35;92.69;97983.41;4989256;28;20049;-60
2021/09/14 01:38:54;;;;;;;9.95;5.95;;;;;;;15.39;92.76;97978.81;4989781;28;20053;-60
2021/09/14 01:41:19;;;;;;;9.70;5.18;;;;;;;15.61;92.55;97978.34;4990342;28;20062;-60
2021/09/14 01:43:45;;;;;;;10.32;6.32;;;;;;;15.41;92.10;97982.19;4988997;28;20580;-60
2021/09/14 01:46:10;;;;;;;8.90;6.10;;;;;;;15.29;92.63;97978.53;4987461;28;20601;-61
2021/09/14 01:48:36;;;;;;;9.25;5.90;;;;;;;15.81;91.41;97969.25;4988227;28;20467;-60
2021/09/14 01:51:04;;;;;;;9.02;6.40;;;;;;;15.53;91.07;97970.94;4987945;28;20036;-59
2021/09/14 01:53:33;;;;;;;8.52;5.95;;;;;;;15.55;91.04;97969.06;4987237;28;20037;-60
2021/09/14 01:56:03;;;;;;;10.23;6.18;;;;;;;15.60;91.58;97967.00;4989786;28;20664;-60
2021/09/14 01:58:28;;;;;;;9.23;6.00;;;;;;;15.77;90.32;97968.59;4989791;28;20030;-60
2021/09/14 02:01:19;;;;;;;11.02;6.03;;;;;;;15.54;91.65;97967.34;4987324;28;20407;-60
2021/09/14 02:03:58;;;;;;;10.10;6.65;;;;;;;15.44;91.50;97971.50;4987203;28;20515;-60
2021/09/14 02:06:35;;;;;;;11.43;6.80;;;;;;;15.47;91.15;97960.78;4991643;28;20049;-59
2021/09/14 02:59:33;;;;;;;7.95;5.30;;;;;;;15.53;91.38;97952.53;4988638;28;20034;-60
2021/09/14 03:01:58;;;;;;;9.18;5.70;;;;;;;15.67;90.37;97956.09;4986833;28;20500;-60
2021/09/14 03:04:24;;;;;;;10.60;6.28;;;;;;;15.37;90.94;97954.41;4985798;28;20030;-61
2021/09/14 03:06:49;;;;;;;10.55;6.38;;;;;;;15.27;91.89;97951.50;4987162;28;20042;-60
2021/09/14 03:09:15;;;;;;;9.68;6.40;;;;;;;15.29;91.99;97954.03;4990425;28;20092;-60
2021/09/14 03:11:40;;;;;;;12.27;6.70;;;;;;;15.14;92.73;97954.00;4985463;28;20031;-60
2021/09/14 03:14:09;;;;;;;10.05;6.10;;;;;;;15.36;91.75;97952.72;4989023;28;20082;-60
2021/09/14 03:16:38;;;;;;;9.27;5.80;;;;;;;15.22;92.96;97957.03;4987796;28;20504;-60
2021/09/14 03:19:05;;;;;;;10.00;5.90;;;;;;;15.39;91.88;97957.78;4986045;28;20029;-61
2021/09/14 03:21:31;;;;;;;10.35;5.75;;;;;;;15.55;90.92;97952.41;4986645;28;20039;-61
2021/09/14 03:23:56;;;;;;;8.18;5.60;;;;;;;15.92;89.04;97948.38;4988607;28;20408;-60
2021/09/14 03:26:22;;;;;;;8.68;5.68;;;;;;;15.52;90.28;97948.22;4987207;28;20582;-60
2021/09/14 03:28:48;;;;;;;15.60;5.80;;;;;;;15.58;89.87;97947.81;4987769;28;20113;-60
2021/09/14 03:31:17;;;;;;;9.32;5.68;;;;;;;15.35;91.64;97946.63;4986188;28;20121;-60
2021/09/14 03:33:43;;;;;;;10.82;6.00;;;;;;;15.46;90.86;97943.34;4985404;28;20088;-60
2021/09/14 03:36:09;;;;;;;11.60;6.78;;;;;;;15.09;92.58;97945.59;4986892;28;20045;-61
2021/09/14 03:38:34;;;;;;;9.70;6.07;;;;;;;15.37;92.46;97949.16;4990705;28;20226;-60
2021/09/14 03:40:59;;;;;;;8.35;6.22;;;;;;;15.55;90.40;97932.25;4990833;28;20364;-60
2021/09/14 03:43:25;;;;;;;10.50;6.35;;;;;;;15.58;90.84;97946.97;4990052;28;20423;-60
2021/09/14 03:45:56;;;;;;;10.95;6.15;;;;;;;15.30;92.08;97937.34;4990479;28;20045;-60
2021/09/14 03:48:21;;;;;;;9.70;6.05;;;;;;;15.41;91.72;97934.88;4991489;28;20053;-61
2021/09/14 03:50:47;;;;;;;9.63;6.70;;;;;;;15.52;91.32;97936.84;4991034;28;20438;-60
2021/09/14 03:53:13;;;;;;;9.10;6.10;;;;;;;15.57;91.27;97940.06;4990815;28;20044;-61
2021/09/14 03:55:38;;;;;;;10.70;6.90;;;;;;;15.54;90.91;97946.31;4989299;28;20054;-60
2021/09/14 03:58:03;;;;;;;9.23;6.38;;;;;;;15.49;91.24;97940.50;4990979;28;20100;-60
2021/09/14 04:00:32;;;;;;;9.93;6.47;;;;;;;15.49;91.47;97937.88;4989721;28;20180;-60
2021/09/14 04:03:12;;;;;;;10.60;6.82;;;;;;;15.64;90.52;97940.50;4992575;28;20026;-62
2021/09/14 04:05:45;;;;;;;9.07;6.50;;;;;;;15.58;89.97;97932.03;4992140;28;20030;-60
2021/09/14 04:10:41;;;;;;;8.13;5.65;;;;;;;15.61;90.64;97939.75;4989102;28;20039;-60
2021/09/14 04:13:07;;;;;;;11.93;6.57;;;;;;;15.49;90.75;97937.03;4992569;28;20014;-60
2021/09/14 04:15:35;;;;;;;9.25;6.25;;;;;;;15.23;92.98;97942.09;4989362;28;20044;-60
2021/09/14 04:18:00;;;;;;;9.13;6.70;;;;;;;15.41;91.64;97938.34;4989473;28;20026;-60
2021/09/14 04:20:26;;;;;;;9.48;6.32;;;;;;;15.51;91.13;97941.28;4990180;28;20349;-60
2021/09/14 04:22:51;;;;;;;9.85;6.68;;;;;;;15.50;91.10;97944.84;4990736;28;20830;-60
2021/09/14 04:25:16;;;;;;;10.10;6.65;;;;;;;15.45;91.31;97936.38;4994902;28;20407;-60
2021/09/14 04:27:42;;;;;;;9.35;6.68;;;;;;;15.48;91.53;97941.47;4998029;28;20025;-60
2021/09/14 04:30:09;;;;;;;10.88;6.32;;;;;;;15.47;91.19;97942.38;4990580;28;20041;-59
2021/09/14 04:32:35;;;;;;;10.02;6.88;;;;;;;15.54;90.54;97946.31;4987747;28;20025;-60
2021/09/14 04:35:01;;;;;;;9.63;6.47;;;;;;;15.38;91.71;97951.72;4990324;28;20038;-62
2021/09/14 04:37:26;;;;;;;13.55;6.95;;;;;;;15.48;90.95;97951.13;4990018;28;20034;-60
2021/09/14 04:39:54;;;;;;;10.18;6.68;;;;;;;15.35;91.54;97956.31;4989100;28;20044;-60
2021/09/14 04:42:20;;;;;;;10.63;6.45;;;;;;;15.45;91.22;97957.41;4988916;28;20034;-60
2021/09/14 04:44:46;;;;;;;10.80;7.13;;;;;;;15.29;91.84;97956.66;4989018;28;20029;-61
2021/09/14 04:47:14;;;;;;;18.40;7.32;;;;;;;15.20;92.12;97953.66;4988057;28;20045;-60
2021/09/14 04:49:39;;;;;;;10.40;6.75;;;;;;;15.18;92.70;97955.53;4997930;28;20058;-60
2021/09/14 04:52:06;;;;;;;10.35;6.63;;;;;;;15.32;92.11;97959.09;4988673;28;20037;-60
2021/09/14 04:54:38;;;;;;;10.57;6.72;;;;;;;15.30;92.15;97953.09;4989567;28;20032;-60
2021/09/14 04:57:04;;;;;;;12.45;6.55;;;;;;;15.32;91.91;97961.75;4987791;28;20035;-62
2021/09/14 04:59:31;;;;;;;9.75;6.75;;;;;;;15.35;92.37;97961.56;4989049;28;20026;-61
2021/09/14 05:01:58;;;;;;;12.30;6.75;;;;;;;15.45;91.76;97965.28;4985233;28;20042;-60
2021/09/14 05:04:23;;;;;;;10.13;6.40;;;;;;;15.67;90.41;97961.34;4992646;28;20937;-60
2021/09/14 05:06:48;;;;;;;9.98;6.15;;;;;;;15.43;91.16;97959.28;4990479;28;20498;-63
2021/09/14 05:09:14;;;;;;;9.02;5.90;;;;;;;15.65;90.68;97952.72;4993019;28;20366;-61
2021/09/14 05:11:40;;;;;;;10.45;6.25;;;;;;;15.45;90.73;97954.78;4989867;28;20739;-62
2021/09/14 05:14:05;;;;;;;10.55;6.50;;;;;;;15.44;91.14;97955.75;4993951;28;20034;-61
2021/09/14 05:16:30;;;;;;;10.27;5.63;;;;;;;15.61;90.44;97957.31;4993178;28;20518;-61
2021/09/14 05:19:08;;;;;;;13.35;6.68;;;;;;;15.63;90.55;97957.22;4992802;28;20030;-61
2021/09/14 05:21:33;;;;;;;10.25;6.30;;;;;;;15.70;89.70;97950.66;4989508;28;20038;-61
2021/09/14 05:23:59;;;;;;;9.38;6.55;;;;;;;15.60;90.63;97952.97;4991371;28;20037;-61
2021/09/14 05:26:26;;;;;;;9.63;6.65;;;;;;;15.79;89.91;97950.94;4991097;28;20775;-61
2021/09/14 05:28:59;;;;;;;11.18;6.90;;;;;;;15.94;88.71;97954.38;4993730;28;20022;-61
2021/09/14 05:31:26;;;;;;;9.27;5.68;;;;;;;16.70;86.41;97962.66;4992890;28;20923;-62
2021/09/14 05:33:52;;;;;;;12.32;6.05;;;;;;;17.28;81.98;97952.63;4990462;28;20093;-61
2021/09/14 05:36:20;;;;;;;8.27;6.00;;;;;;;17.03;82.59;97951.66;4991411;28;20444;-61
2021/09/14 05:38:45;;;;;;;9.55;5.93;;;;;;;17.12;82.10;97952.81;4991739;28;20099;-61
2021/09/14 05:41:11;;;;;;;11.23;5.57;;;;;;;16.88;83.33;97955.34;4989484;28;20042;-61
2021/09/14 05:43:38;;;;;;;8.52;5.60;;;;;;;16.57;83.69;97952.91;5003277;28;20480;-62
2021/09/14 05:46:03;;;;;;;9.75;5.85;;;;;;;16.98;83.02;97953.75;4990013;28;20034;-61
2021/09/14 05:48:29;;;;;;;7.90;5.97;;;;;;;17.10;82.29;97960.00;4991838;28;20026;-61
2021/09/14 05:50:54;;;;;;;9.90;6.00;;;;;;;16.71;83.57;97965.19;4990179;28;20174;-62
2021/09/14 05:53:20;;;;;;;11.80;6.00;;;;;;;17.21;81.57;97962.75;4988897;28;20443;-61
2021/09/14 05:55:45;;;;;;;7.90;5.30;;;;;;;17.00;82.42;97954.53;4991645;28;20446;-61
2021/09/14 05:58:10;;;;;;;8.23;5.05;;;;;;;17.44;80.81;97963.78;4989661;28;20026;-61
2021/09/14 06:00:36;;;;;;;8.68;5.55;;;;;;;17.34;80.64;97953.03;4990066;28;20041;-61
2021/09/14 06:03:02;;;;;;;8.73;5.50;;;;;;;17.66;79.85;97946.44;4991496;28;20058;-63
2021/09/14 06:05:27;;;;;;;9.00;5.78;;;;;;;17.64;79.42;97948.34;4990014;28;20058;-61
2021/09/14 06:07:56;;;;;;;9.30;5.60;;;;;;;17.76;78.66;97947.50;4990411;28;20048;-61
2021/09/14 06:10:21;;;;;;;8.30;5.32;;;;;;;18.39;76.86;97950.03;4988271;28;20041;-61
2021/09/14 06:12:46;;;;;;;8.02;6.03;;;;;;;18.09;78.02;97957.44;4991614;28;20033;-61
2021/09/14 06:15:12;;;;;;;7.80;5.13;;;;;;;18.09;77.28;97961.88;4989762;28;20109;-62
2021/09/14 06:17:39;;;;;;;10.38;5.28;;;;;;;18.09;77.78;97959.25;4989982;28;20100;-61
2021/09/14 06:20:08;;;;;;;6.95;4.78;;;;;;;18.84;75.11;97953.72;4989574;28;20026;-61
2021/09/14 06:22:33;;;;;;;8.27;4.90;;;;;;;18.57;74.99;97953.97;4990337;28;20103;-61
2021/09/14 06:25:01;;;;;;;10.25;5.22;;;;;;;19.11;73.96;97957.03;4989245;28;20724;-61
2021/09/14 06:27:26;;;;;;;8.45;5.32;;;;;;;19.48;72.40;97964.75;4989316;28;20152;-61
2021/09/14 06:29:52;;;;;;;7.97;5.10;;;;;;;19.68;71.34;97966.66;4990962;28;20472;-63
2021/09/14 06:32:17;;;;;;;6.95;4.47;;;;;;;21.34;65.28;97969.00;4990294;28;20132;-61
2021/09/14 06:34:43;;;;;;;7.68;4.55;;;;;;;20.42;68.66;97961.63;4991225;28;20080;-60
2021/09/14 06:37:08;;;;;;;5.82;4.50;;;;;;;19.74;70.10;97963.59;4989985;28;20049;-62
2021/09/14 06:39:35;;;;;;;7.32;4.30;;;;;;;21.81;64.44;97955.25;4993437;28;20077;-62
2021/09/14 06:42:06;;;;;;;11.73;4.05;;;;;;;21.55;64.78;97953.06;4992414;28;20042;-61
2021/09/14 06:44:32;;;;;;;5.70;4.13;;;;;;;22.96;60.39;97946.72;4991345;28;20483;-61
2021/09/14 06:46:58;;;;;;;10.52;4.05;;;;;;;23.66;57.50;97947.25;4991403;28;20042;-60
2021/09/14 06:49:23;;;;;;;8.52;3.72;;;;;;;23.82;57.90;97951.97;4991216;28;20057;-60
2021/09/14 06:51:48;;;;;;;6.47;3.85;;;;;;;25.09;54.47;97951.03;4991473;28;20053;-62
2021/09/14 06:54:14;;;;;;;6.15;3.72;;;;;;;27.00;50.37;97948.88;4988282;28;20038;-64
2021/09/14 06:56:42;;;;;;;5.43;3.90;;;;;;;29.38;44.21;97940.41;4990554;28;20049;-61
2021/09/14 06:59:10;;;;;;;7.82;3.83;;;;;;;26.04;49.87;97950.22;4991285;28;20045;-61
2021/09/14 07:01:35;;;;;;;9.60;3.50;;;;;;;28.43;46.35;97946.22;4989679;28;20038;-63
2021/09/14 07:04:04;;;;;;;7.22;3.15;;;;;;;29.69;43.08;97936.72;4990052;28;20113;-60
2021/09/14 07:06:32;;;;;;;6.05;3.60;;;;;;;25.25;51.37;97946.81;4988673;28;20758;-62
2021/09/14 07:08:57;;;;;;;6.30;3.55;;;;;;;29.97;42.36;97938.75;4992533;28;20029;-64
2021/09/14 07:11:23;;;;;;;5.15;3.65;;;;;;;29.77;40.53;97944.69;4992282;28;20038;-63
2021/09/14 07:13:48;;;;;;;4.85;3.13;;;;;;;30.86;40.94;97943.84;4990450;28;20026;-62
2021/09/14 07:16:14;;;;;;;6.45;3.22;;;;;;;30.18;41.11;97949.56;4991187;28;20042;-62
2021/09/14 07:18:41;;;;;;;6.22;3.03;;;;;;;31.44;40.02;97940.16;4994010;28;20301;-63
2021/09/14 07:21:06;;;;;;;4.45;3.00;;;;;;;31.37;39.26;97939.28;4993558;28;20034;-62
2021/09/14 07:23:32;;;;;;;6.75;2.80;;;;;;;32.85;37.29;97943.19;4993586;28;20088;-62
2021/09/14 07:26:00;;;;;;;5.72;3.10;;;;;;;29.55;42.15;97950.97;4991898;28;20088;-62
2021/09/14 07:28:25;;;;;;;7.80;3.10;;;;;;;29.03;42.93;97950.81;4993719;28;20057;-63
2021/09/14 07:30:51;;;;;;;8.38;3.30;;;;;;;28.93;43.39;97947.56;4993395;28;20383;-64
2021/09/14 07:33:18;;;;;;;4.95;2.80;;;;;;;30.83;41.22;97943.41;4993612;28;20057;-62
2021/09/14 07:35:43;;;;;;;7.47;3.10;;;;;;;32.66;37.99;97938.59;4993269;28;20519;-64
2021/09/14 07:38:10;;;;;;;4.35;2.83;;;;;;;32.27;38.12;97940.97;4994150;28;20038;-63
2021/09/14 07:40:36;;;;;;;6.72;3.20;;;;;;;33.83;35.82;97938.94;4994372;28;20133;-62
2021/09/14 07:43:08;;;;;;;5.43;3.10;;;;;;;35.11;33.90;97946.09;4993143;28;20038;-62
2021/09/14 07:45:39;;;;;;;4.88;2.70;;;;;;;33.57;36.58;97946.06;5000921;28;20125;-62
2021/09/14 07:48:08;;;;;;;5.13;2.67;;;;;;;31.90;38.49;97945.81;4994492;28;20476;-62
2021/09/14 07:50:36;;;;;;;6.15;2.97;;;;;;;34.93;34.01;97944.16;4991927;28;20046;-63
2021/09/14 07:53:02;;;;;;;5.38;2.70;;;;;;;33.54;37.43;97941.06;4991388;28;20436;-62
2021/09/14 07:55:28;;;;;;;4.90;2.80;;;;;;;33.83;36.05;97938.09;4994729;28;20038;-63
2021/09/14 07:57:53;;;;;;;8.60;2.70;;;;;;;33.91;36.06;97941.41;4993726;28;20022;-63
2021/09/14 08:00:25;;;;;;;5.72;2.70;;;;;;;33.78;36.07;97938.72;4993323;28;20632;-62
2021/09/14 08:03:03;;;;;;;6.68;3.03;;;;;;;30.87;40.33;97939.28;4994237;28;20034;-63
2021/09/14 08:05:39;;;;;;;4.75;2.75;;;;;;;30.46;41.54;97951.53;4992280;28;20030;-61
2021/09/14 08:08:05;;;;;;;4.93;2.75;;;;;;;30.65;42.93;97942.00;4994272;28;20022;-61
2021/09/14 08:10:31;;;;;;;3.22;2.65;;;;;;;32.49;36.87;97931.91;4992007;28;20072;-62
2021/09/14 08:12:56;;;;;;;3.50;2.60;;;;;;;33.46;35.17;97937.78;4992009;28;20392;-62
2021/09/14 08:15:21;;;;;;;3.70;2.40;;;;;;;32.72;34.77;97943.19;4991458;28;20373;-62
2021/09/14 08:17:50;;;;;;;3.50;2.40;;;;;;;33.47;34.53;97942.13;4992634;28;20411;-62
2021/09/14 08:20:18;;;;;;;3.38;2.15;;;;;;;33.71;33.86;97936.06;4989600;28;20130;-62
2021/09/14 08:22:43;;;;;;;5.55;2.20;;;;;;;32.26;35.66;97938.50;4990011;28;20053;-61
2021/09/14 08:25:11;;;;;;;4.72;2.40;;;;;;;33.38;34.29;97930.69;4990641;28;20065;-61
2021/09/14 08:27:46;;;;;;;4.05;2.30;;;;;;;33.85;33.42;97931.41;5007069;28;20018;-62
2021/09/14 08:30:12;;;;;;;5.97;2.40;;;;;;;32.58;35.89;97936.09;4988519;28;20103;-62
2021/09/14 08:32:37;;;;;;;9.38;2.40;;;;;;;36.57;30.18;97931.91;4993329;28;20021;-62
2021/09/14 08:35:03;;;;;;;4.90;2.50;;;;;;;34.69;32.38;97936.88;4994124;28;20037;-63
2021/09/14 08:37:31;;;;;;;5.03;2.20;;;;;;;35.92;30.77;97932.59;4994735;28;20046;-63
2021/09/14 08:40:02;;;;;;;3.90;2.50;;;;;;;34.47;32.65;97936.34;4994137;28;20062;-63
2021/09/14 08:42:35;;;;;;;4.85;2.30;;;;;;;32.84;34.59;97936.13;4994272;28;20433;-63
2021/09/14 08:45:02;;;;;;;5.68;2.40;;;;;;;32.68;35.36;97935.69;4994618;28;20033;-63
2021/09/14 08:47:28;;;;;;;4.20;2.30;;;;;;;35.24;31.96;97944.34;4992331;28;20489;-63
2021/09/14 08:49:59;;;;;;;4.68;2.55;;;;;;;34.21;33.28;97940.88;4990374;28;20121;-62
2021/09/14 08:52:24;;;;;;;6.45;2.35;;;;;;;36.27;30.26;97943.63;4993416;28;20030;-62
2021/09/14 08:54:50;;;;;;;5.82;2.60;;;;;;;34.61;32.92;97937.94;4996036;28;20084;-61
2021/09/14 08:57:15;;;;;;;6.18;2.58;;;;;;;33.70;34.65;97933.56;4991121;28;20046;-62
2021/09/14 08:59:47;;;;;;;3.78;2.40;;;;;;;32.78;36.34;97934.25;4992580;28;20133;-63
2021/09/14 09:02:15;;;;;;;5.70;2.42;;;;;;;35.16;32.48;97933.75;4990565;28;20034;-62
2021/09/14 09:04:56;;;;;;;4.63;2.40;;;;;;;34.28;33.98;97933.56;4994300;28;20052;-62
2021/09/14 09:07:37;;;;;;;5.13;2.35;;;;;;;35.65;31.69;97929.31;4992868;28;20038;-63
2021/09/14 09:10:12;;;;;;;3.95;2.50;;;;;;;34.91;32.71;97926.47;4991437;28;20097;-62
2021/09/14 09:12:40;;;;;;;6.32;2.55;;;;;;;35.11;32.38;97929.84;4993881;28;20739;-62
2021/09/14 09:15:11;;;;;;;4.88;2.75;;;;;;;32.94;35.08;97937.56;4997273;28;20469;-64
2021/09/14 09:17:36;;;;;;;3.53;2.45;;;;;;;33.75;34.32;97925.66;4993610;28;20125;-63
2021/09/14 09:20:10;;;;;;;3.78;2.53;;;;;;;35.15;32.35;97922.09;4994416;28;20511;-57
2021/09/14 09:22:37;;;;;;;4.72;2.63;;;;;;;35.09;31.96;97926.53;4991228;28;20431;-63
2021/09/14 09:25:06;;;;;;;4.10;2.70;;;;;;;33.17;35.84;97926.38;4993701;28;20496;-63
2021/09/14 09:27:37;;;;;;;3.78;2.70;;;;;;;35.16;32.27;97922.91;4991590;28;20650;-61
2021/09/14 09:30:10;;;;;;;;;;;;;;;34.54;33.01;97924.44;4992590;28;20443;-62
2021/09/14 09:32:55;;;;;;;3.97;2.90;;;;;;;32.64;35.75;97929.88;4988517;28;19905;-62
2021/09/14 09:35:31;;;;;;;5.07;2.92;;;;;;;34.60;33.24;97928.13;4990205;28;20046;-62
2021/09/14 09:37:58;;;;;;;4.35;2.55;;;;;;;35.21;32.07;97923.09;4989475;28;20062;-62
2021/09/14 09:40:33;;;;;;;4.10;2.78;;;;;;;34.04;33.73;97915.31;4989666;28;20071;-62
2021/09/14 09:43:04;;;;;;;4.25;2.80;;;;;;;32.66;35.71;97919.69;4990353;28;20034;-63
2021/09/14 09:45:42;;;;;;;4.75;3.03;;;;;;;35.31;32.02;97915.31;4988844;28;20034;-63
2021/09/14 09:48:09;;;;;;;12.73;3.08;;;;;;;35.19;32.34;97911.66;4988360;28;20129;-63
2021/09/14 09:50:36;;;;;;;6.75;2.60;;;;;;;35.97;31.31;97910.16;4989401;28;20129;-62
2021/09/14 09:53:06;;;;;;;5.00;2.70;;;;;;;35.93;31.39;97908.97;4988095;28;20022;-62
2021/09/14 09:55:38;;;;;;;4.43;2.80;;;;;;;35.98;31.45;97900.97;4989085;28;20049;-63
2021/09/14 09:58:10;;;;;;;4.43;2.97;;;;;;;33.52;35.00;97902.59;4989043;28;20065;-61
2021/09/14 10:00:40;;;;;;;4.47;2.72;;;;;;;35.76;31.68;97912.31;4989109;28;20034;-65
2021/09/14 10:03:17;;;;;;;5.53;2.63;;;;;;;35.71;31.75;97904.00;4989144;28;20084;-62
2021/09/14 10:05:47;;;;;;;5.25;2.72;;;;;;;34.35;33.41;97899.16;4990339;28;20040;-63
2021/09/14 10:08:15;;;;;;;6.25;2.72;;;;;;;34.20;33.80;97893.19;4989327;28;20034;-63
2021/09/14 10:10:58;;;;;;;6.90;2.97;;;;;;;35.01;32.57;97891.56;4989263;28;20997;-63
2021/09/14 10:13:49;;;;;;;3.92;3.10;;;;;;;34.08;34.60;97887.63;4988841;28;20032;-63
2021/09/14 10:16:24;;;;;;;5.43;2.97;;;;;;;34.28;34.49;97884.84;4987703;28;20044;-63
2021/09/14 10:18:50;;;;;;;4.50;3.15;;;;;;;33.51;35.77;97887.41;4990468;28;20041;-63
2021/09/14 10:21:19;;;;;;;4.53;2.70;;;;;;;35.24;32.88;97879.28;4989704;28;20046;-63
2021/09/14 10:23:53;;;;;;;3.58;2.78;;;;;;;34.30;33.51;97884.59;4987332;28;20130;-63
2021/09/14 10:26:19;;;;;;;3.85;2.70;;;;;;;34.80;32.85;97878.44;4995314;28;20095;-63
2021/09/14 10:28:47;;;;;;;5.43;3.08;;;;;;;32.40;36.53;97877.28;4989391;28;20022;-61
2021/09/14 10:31:26;;;;;;;3.83;2.83;;;;;;;33.59;34.83;97870.13;4991041;28;20590;-63
2021/09/14 10:34:09;;;;;;;3.78;3.00;;;;;;;34.36;33.19;97879.13;4988308;28;20121;-63
2021/09/14 10:36:48;;;;;;;3.78;2.90;;;;;;;33.32;34.46;97877.47;4988716;28;20050;-63
2021/09/14 10:39:24;;;;;;;3.72;2.80;;;;;;;33.89;33.96;97883.94;4990085;28;20042;-62
2021/09/14 10:41:53;;;;;;;4.53;3.05;;;;;;;33.18;34.76;97871.28;4986867;28;20077;-63
2021/09/14 10:44:24;;;;;;;4.07;2.90;;;;;;;33.97;33.94;97881.00;4991183;28;20026;-62
2021/09/14 10:47:04;;;;;;;5.40;3.05;;;;;;;34.04;33.75;97874.72;4995442;28;20052;-62
2021/09/14 10:49:58;;;;;;;4.13;3.13;;;;;;;33.40;34.34;97869.97;4996812;28;20720;-60
2021/09/14 10:52:42;;;;;;;4.95;3.13;;;;;;;32.81;35.95;97870.88;4993180;28;20427;-60
2021/09/14 10:55:10;;;;;;;3.97;3.00;;;;;;;33.23;34.83;97861.50;4994500;28;20026;-60
2021/09/14 10:57:51;;;;;;;9.70;3.25;;;;;;;32.39;35.43;97867.53;4994104;28;20038;-60
2021/09/14 11:00:19;;;;;;;4.18;3.10;;;;;;;31.39;36.56;97862.56;4989755;28;20389;-59
2021/09/14 11:03:08;;;;;;;4.55;3.03;;;;;;;31.24;37.58;97864.56;4996333;28;20399;-60
2021/09/14 11:05:36;;;;;;;4.85;3.38;;;;;;;32.13;36.18;97865.59;4974699;28;20038;-61
2021/09/14 11:08:06;;;;;;;4.97;2.90;;;;;;;33.05;35.44;97861.31;4994433;28;20026;-63
2021/09/14 11:10:40;;;;;;;4.70;3.17;;;;;;;32.93;36.13;97860.28;4994903;28;20048;-62
2021/09/14 11:13:26;;;;;;;5.03;3.80;;;;;;;32.12;37.07;97856.69;4993762;28;20395;-63
2021/09/14 11:16:05;;;;;;;5.28;3.60;;;;;;;31.97;37.19;97862.22;4993529;28;20046;-63
2021/09/14 11:18:37;;;;;;;5.70;3.20;;;;;;;31.70;37.89;97862.13;4995484;28;20030;-59
2021/09/14 11:21:18;;;;;;;5.03;3.40;;;;;;;32.34;37.19;97864.63;4991699;28;20038;-63
2021/09/14 11:23:50;;;;;;;5.20;3.47;;;;;;;32.70;36.33;97863.41;4993151;28;20093;-61
2021/09/14 11:26:19;;;;;;;7.85;3.33;;;;;;;32.17;37.44;97864.19;4994032;28;20034;-65
2021/09/14 11:28:59;;;;;;;5.47;3.20;;;;;;;31.06;39.20;97867.78;4991975;28;20033;-64
2021/09/14 11:31:31;;;;;;;5.07;3.20;;;;;;;29.76;41.53;97862.41;4994729;28;20108;-62
2021/09/14 11:34:20;;;;;;;6.35;4.40;;;;;;;30.16;40.37;97865.53;4991261;28;20965;-63
2021/09/14 11:36:47;;;;;;;5.07;3.67;;;;;;;30.01;41.35;97862.03;4994223;28;20050;-63
2021/09/14 11:39:13;;;;;;;6.65;3.50;;;;;;;30.00;41.11;97865.78;4993039;28;20030;-62
2021/09/14 11:41:44;;;;;;;6.40;3.47;;;;;;;29.63;41.90;97859.53;4994145;28;20069;-62
2021/09/14 11:44:11;;;;;;;6.78;3.42;;;;;;;30.86;40.30;97862.22;4993778;28;20045;-63
2021/09/14 11:46:47;;;;;;;6.47;3.80;;;;;;;30.69;40.79;97867.06;4994520;28;20049;-62
2021/09/14 11:49:12;;;;;;;5.93;3.60;;;;;;;30.35;40.42;97872.16;4991327;28;20034;-63
2021/09/14 11:51:40;;;;;;;6.70;3.20;;;;;;;30.07;40.07;97869.38;4993226;28;20042;-65
2021/09/14 11:54:10;;;;;;;4.20;3.30;;;;;;;29.48;41.29;97858.69;4993074;28;20448;-63
2021/09/14 11:56:38;;;;;;;5.80;3.53;;;;;;;29.89;40.15;97860.91;4988727;28;20046;-63
2021/09/14 11:59:17;;;;;;;4.97;3.10;;;;;;;29.85;40.57;97862.28;4991524;28;20069;-60
2021/09/14 12:01:44;;;;;;;7.78;3.35;;;;;;;29.52;41.15;97859.97;4988745;28;20514;-61
2021/09/14 12:04:16;;;;;;;4.82;3.20;;;;;;;29.39;42.58;97855.28;5003496;28;20660;-65
2021/09/14 12:07:09;;;;;;;12.32;3.40;;;;;;;29.08;42.64;97842.00;4989912;28;20066;-62
2021/09/14 12:09:34;;;;;;;10.30;5.53;;;;;;;29.90;41.96;97851.78;4985129;28;20046;-61
2021/09/14 12:12:06;;;;;;;5.65;3.60;;;;;;;29.54;41.08;97841.84;4988316;28;20567;-62
2021/09/14 12:14:42;;;;;;;7.32;3.92;;;;;;;29.58;42.14;97848.50;4986242;28;20033;-61
2021/09/14 12:17:08;;;;;;;4.68;3.42;;;;;;;28.83;42.80;97850.31;4987387;28;20037;-63
2021/09/14 12:19:37;;;;;;;6.50;3.40;;;;;;;29.69;41.88;97839.97;4992600;28;20607;-64
2021/09/14 12:22:12;;;;;;;5.75;3.42;;;;;;;28.86;42.89;97838.38;4991198;28;20046;-63
2021/09/14 12:24:40;;;;;;;4.57;3.40;;;;;;;28.88;42.61;97839.06;4987005;28;20030;-63
2021/09/14 12:27:08;;;;;;;5.18;3.30;;;;;;;28.94;42.51;97841.00;4988551;28;20038;-61
2021/09/14 12:29:39;;;;;;;4.78;3.45;;;;;;;28.72;42.58;97837.34;4988200;28;20026;-60
2021/09/14 12:32:13;;;;;;;4.47;3.00;;;;;;;29.13;42.60;97834.22;4989561;28;20481;-60